Time;durP1;ratioP1;P1;durP2;ratioP2;P2;SDS_P1;SDS_P2;PMS_P1;PMS_P2;Temp;Humidity;BMP_temperature;BMP_pressure;BME280_temperature;BME280_humidity;BME280_pressure;Samples;Min_cycle;Max_cycle;Signal;HPM_P1;HPM_P2
2024/03/11 00:00:17;;;;;;;1.33;0.80;;;10.50;99.90;;;;;;5043561;28;20201;-62
2024/03/11 00:02:44;;;;;;;1.50;0.90;;;10.50;99.90;;;;;;5046556;28;20217;-62
2024/03/11 00:05:12;;;;;;;1.43;1.10;;;10.60;99.90;;;;;;5046855;28;20251;-62
2024/03/11 00:07:40;;;;;;;0.67;0.60;;;10.60;99.90;;;;;;5044145;28;20648;-63
2024/03/11 00:10:12;;;;;;;0.60;0.60;;;10.60;99.90;;;;;;5043497;28;20237;-63
2024/03/11 00:12:40;;;;;;;1.00;0.90;;;10.60;99.90;;;;;;5046382;28;20226;-62
2024/03/11 00:15:10;;;;;;;1.67;0.90;;;10.60;99.90;;;;;;5046541;28;20201;-62
2024/03/11 00:17:39;;;;;;;1.20;0.70;;;10.60;99.90;;;;;;5044151;28;20210;-62
2024/03/11 00:20:06;;;;;;;0.80;0.80;;;10.60;99.90;;;;;;5043096;28;20669;-63
2024/03/11 00:22:36;;;;;;;0.83;0.80;;;10.60;99.90;;;;;;5044833;28;20605;-63
2024/03/11 00:25:04;;;;;;;0.80;0.80;;;10.50;99.90;;;;;;5046302;28;20283;-63
2024/03/11 00:27:30;;;;;;;1.30;1.00;;;10.40;99.90;;;;;;5044997;28;20264;-63
2024/03/11 00:29:57;;;;;;;0.80;0.80;;;10.40;99.90;;;;;;5043062;28;20198;-63
2024/03/11 00:32:25;;;;;;;1.03;0.90;;;10.40;99.90;;;;;;5043283;28;20234;-63
2024/03/11 00:34:53;;;;;;;0.90;0.70;;;10.40;99.90;;;;;;5046238;28;20202;-63
2024/03/11 00:37:20;;;;;;;0.70;0.70;;;10.50;99.90;;;;;;5046331;28;20201;-63
2024/03/11 00:39:47;;;;;;;1.10;0.80;;;10.50;99.90;;;;;;5046238;28;20252;-63
2024/03/11 00:42:14;;;;;;;0.97;0.90;;;10.40;99.90;;;;;;5046051;28;20222;-63
2024/03/11 00:44:40;;;;;;;1.00;0.90;;;10.40;99.90;;;;;;5043223;28;20209;-63
2024/03/11 00:47:08;;;;;;;0.90;0.80;;;10.40;99.90;;;;;;5042431;28;20691;-63
2024/03/11 00:49:35;;;;;;;1.23;1.00;;;10.40;99.90;;;;;;5044067;28;20297;-63
2024/03/11 00:52:04;;;;;;;0.83;0.70;;;10.40;99.90;;;;;;5045799;28;20237;-63
2024/03/11 00:54:31;;;;;;;0.70;0.70;;;10.50;99.90;;;;;;5044259;28;20202;-63
2024/03/11 00:56:58;;;;;;;0.83;0.67;;;10.40;99.90;;;;;;5042295;28;20321;-63
2024/03/11 00:59:25;;;;;;;1.77;1.10;;;10.40;99.90;;;;;;5042870;28;20238;-63
2024/03/11 01:01:51;;;;;;;1.00;0.90;;;10.40;99.90;;;;;;5045531;28;20629;-63
2024/03/11 01:04:21;;;;;;;1.20;0.97;;;10.40;99.90;;;;;;5045496;28;20205;-64
2024/03/11 01:06:47;;;;;;;0.80;0.77;;;10.30;99.90;;;;;;5034544;28;20210;-63
2024/03/11 01:09:20;;;;;;;1.30;1.00;;;10.20;99.90;;;;;;5042201;28;20201;-63
2024/03/11 01:11:47;;;;;;;1.00;0.90;;;10.20;99.90;;;;;;5045565;28;20312;-63
2024/03/11 01:14:13;;;;;;;0.87;0.80;;;10.20;99.90;;;;;;5045306;28;20208;-63
2024/03/11 01:16:40;;;;;;;1.10;0.90;;;10.30;99.90;;;;;;5043062;28;20213;-63
2024/03/11 01:19:07;;;;;;;1.33;1.00;;;10.40;99.90;;;;;;5042304;28;20241;-63
2024/03/11 01:21:35;;;;;;;0.80;0.77;;;10.50;99.90;;;;;;5043635;28;20290;-63
2024/03/11 01:24:03;;;;;;;1.47;1.10;;;10.40;99.90;;;;;;5045075;28;20298;-63
2024/03/11 01:26:31;;;;;;;1.20;0.97;;;10.50;99.90;;;;;;5044215;28;20201;-62
2024/03/11 01:28:58;;;;;;;1.73;1.20;;;10.50;99.90;;;;;;5042215;28;20233;-63
2024/03/11 01:31:25;;;;;;;1.23;1.00;;;10.50;99.90;;;;;;5042058;28;20296;-62
2024/03/11 01:33:51;;;;;;;1.17;1.07;;;10.50;99.90;;;;;;5045165;28;20205;-63
2024/03/11 01:36:19;;;;;;;1.43;0.77;;;10.50;99.90;;;;;;5045244;28;20225;-63
2024/03/11 01:38:47;;;;;;;1.50;0.90;;;10.50;99.90;;;;;;5042069;28;20896;-62
2024/03/11 01:41:14;;;;;;;0.90;0.90;;;10.60;99.90;;;;;;5041555;28;20661;-63
2024/03/11 01:43:42;;;;;;;1.00;0.90;;;10.60;99.90;;;;;;5043744;28;20222;-63
2024/03/11 01:46:09;;;;;;;0.93;0.77;;;10.60;99.90;;;;;;5045060;28;20205;-62
2024/03/11 01:48:37;;;;;;;1.03;0.90;;;10.50;99.90;;;;;;5043088;28;20252;-62
2024/03/11 01:51:04;;;;;;;1.43;0.97;;;10.50;99.90;;;;;;5041289;28;20218;-62
2024/03/11 01:53:32;;;;;;;1.97;0.97;;;10.50;99.90;;;;;;5041892;28;20257;-63
2024/03/11 01:55:59;;;;;;;0.60;0.60;;;10.50;99.90;;;;;;5044845;28;20197;-63
2024/03/11 01:58:27;;;;;;;1.00;0.90;;;10.40;99.90;;;;;;5044518;28;20655;-63
2024/03/11 02:00:56;;;;;;;2.40;1.13;;;10.40;99.90;;;;;;5040460;28;20643;-62
2024/03/11 02:03:23;;;;;;;1.73;1.03;;;10.40;99.90;;;;;;5040793;28;20226;-62
2024/03/11 02:05:50;;;;;;;1.27;1.03;;;10.30;99.90;;;;;;5033144;28;20289;-62
2024/03/11 02:08:16;;;;;;;1.10;1.00;;;10.30;99.90;;;;;;5041329;28;20198;-62
2024/03/11 02:10:43;;;;;;;1.27;1.17;;;10.30;99.90;;;;;;5043769;28;20222;-62
2024/03/11 02:13:10;;;;;;;1.23;0.90;;;10.30;99.90;;;;;;5044429;28;20221;-62
2024/03/11 02:15:37;;;;;;;1.10;1.00;;;10.30;99.90;;;;;;5042290;28;20209;-62
2024/03/11 02:18:06;;;;;;;1.23;0.90;;;10.20;99.90;;;;;;5040775;28;20203;-62
2024/03/11 02:20:33;;;;;;;0.93;0.90;;;10.20;99.90;;;;;;5042122;28;20250;-63
2024/03/11 02:23:05;;;;;;;1.07;0.97;;;10.20;99.90;;;;;;5044381;28;20225;-63
2024/03/11 02:25:31;;;;;;;1.10;0.80;;;10.20;99.90;;;;;;5042921;28;20205;-62
2024/03/11 02:28:00;;;;;;;1.03;0.70;;;10.10;99.90;;;;;;5040703;28;20202;-62
2024/03/11 02:30:27;;;;;;;1.10;1.00;;;10.00;99.90;;;;;;5040733;28;20579;-62
2024/03/11 02:32:54;;;;;;;1.10;1.00;;;9.90;99.90;;;;;;5043886;28;20240;-62
2024/03/11 02:35:21;;;;;;;1.93;1.33;;;9.80;99.90;;;;;;5043747;28;20240;-63
2024/03/11 02:37:49;;;;;;;1.10;1.00;;;9.70;99.90;;;;;;5040861;28;20209;-62
2024/03/11 02:40:18;;;;;;;1.37;1.07;;;9.60;99.90;;;;;;5040639;28;20630;-62
2024/03/11 02:42:45;;;;;;;1.43;1.33;;;9.60;99.90;;;;;;5043095;28;20286;-62
2024/03/11 02:45:14;;;;;;;1.00;0.90;;;9.50;99.90;;;;;;5043658;28;20205;-62
2024/03/11 02:47:41;;;;;;;1.10;1.00;;;9.40;99.90;;;;;;5041535;28;20205;-62
2024/03/11 02:50:08;;;;;;;1.17;1.00;;;9.40;99.90;;;;;;5040446;28;20263;-62
2024/03/11 02:52:36;;;;;;;1.37;1.20;;;9.30;99.90;;;;;;5041491;28;20230;-63
2024/03/11 02:55:05;;;;;;;4.00;1.23;;;9.20;99.90;;;;;;5043938;28;20202;-62
2024/03/11 02:57:33;;;;;;;0.90;0.80;;;9.10;99.90;;;;;;5042657;28;20237;-63
2024/03/11 03:00:00;;;;;;;2.20;1.03;;;9.10;99.90;;;;;;5040624;28;20265;-63
2024/03/11 03:02:27;;;;;;;1.93;1.00;;;8.90;99.90;;;;;;5040291;28;20272;-63
2024/03/11 03:04:55;;;;;;;2.63;1.10;;;8.90;99.90;;;;;;5043849;28;20197;-63
2024/03/11 03:07:24;;;;;;;1.47;0.80;;;8.80;99.90;;;;;;5043929;28;20232;-62
2024/03/11 03:09:51;;;;;;;1.30;1.10;;;8.80;99.90;;;;;;5032350;28;20299;-62
2024/03/11 03:12:18;;;;;;;1.70;0.93;;;8.70;99.90;;;;;;5039746;28;20280;-62
2024/03/11 03:14:46;;;;;;;0.93;0.83;;;8.70;99.90;;;;;;5042467;28;20321;-62
2024/03/11 03:17:13;;;;;;;0.70;0.70;;;8.70;99.90;;;;;;5043676;28;20271;-62
2024/03/11 03:19:39;;;;;;;0.80;0.70;;;8.70;99.90;;;;;;5041415;28;20209;-63
2024/03/11 03:22:07;;;;;;;1.33;0.87;;;8.70;99.90;;;;;;5039917;28;20229;-62
2024/03/11 03:24:34;;;;;;;1.20;0.90;;;8.60;99.90;;;;;;5040797;28;20210;-64
2024/03/11 03:27:01;;;;;;;2.07;1.40;;;8.60;99.90;;;;;;5043179;28;20212;-64
2024/03/11 03:29:27;;;;;;;1.93;1.23;;;8.60;99.90;;;;;;5042907;28;20232;-63
2024/03/11 03:31:55;;;;;;;0.67;0.60;;;8.50;99.90;;;;;;5039851;28;20226;-63
2024/03/11 03:34:22;;;;;;;1.37;1.13;;;8.50;99.90;;;;;;5039826;28;20214;-63
2024/03/11 03:36:49;;;;;;;1.30;0.90;;;8.40;99.90;;;;;;5042908;28;20197;-63
2024/03/11 03:39:15;;;;;;;1.63;1.00;;;8.40;99.90;;;;;;5043235;28;20526;-64
2024/03/11 03:41:42;;;;;;;1.63;0.93;;;8.30;99.90;;;;;;5040752;28;20218;-63
2024/03/11 03:44:09;;;;;;;1.57;1.10;;;8.30;99.90;;;;;;5039565;28;20203;-64
2024/03/11 03:46:35;;;;;;;1.30;0.60;;;8.20;99.90;;;;;;5041680;28;20210;-63
2024/03/11 03:49:03;;;;;;;0.83;0.70;;;8.20;99.90;;;;;;5044580;28;20208;-63
2024/03/11 03:51:30;;;;;;;1.63;0.97;;;8.20;99.90;;;;;;5043241;28;20221;-62
2024/03/11 03:53:58;;;;;;;0.73;0.60;;;8.10;99.90;;;;;;5040072;28;20217;-61
2024/03/11 03:56:26;;;;;;;3.87;2.70;;;8.20;99.90;;;;;;5040246;28;20216;-61
2024/03/11 03:58:52;;;;;;;2.57;1.83;;;8.20;99.90;;;;;;5031741;28;20306;-61
2024/03/11 04:01:19;;;;;;;2.07;0.80;;;8.20;99.90;;;;;;5039721;28;20203;-61
2024/03/11 04:03:46;;;;;;;1.87;1.20;;;8.20;99.90;;;;;;5042074;28;20280;-61
2024/03/11 04:06:14;;;;;;;1.90;1.27;;;8.10;99.90;;;;;;5043110;28;20254;-61
2024/03/11 04:08:41;;;;;;;2.70;1.17;;;8.10;99.90;;;;;;5040983;28;20210;-62
2024/03/11 04:11:07;;;;;;;1.70;0.90;;;7.90;99.90;;;;;;5039639;28;20202;-62
2024/03/11 04:13:34;;;;;;;0.83;0.60;;;7.90;99.90;;;;;;5040087;28;20284;-62
2024/03/11 04:16:04;;;;;;;1.43;0.90;;;7.90;99.90;;;;;;5043036;28;20202;-61
2024/03/11 04:18:32;;;;;;;2.63;1.10;;;7.90;99.90;;;;;;5042347;28;20205;-62
2024/03/11 04:20:59;;;;;;;3.70;2.20;;;7.80;99.90;;;;;;5039284;28;20203;-62
2024/03/11 04:23:28;;;;;;;3.40;1.23;;;7.70;99.90;;;;;;5039962;28;20269;-62
2024/03/11 04:25:56;;;;;;;3.93;2.43;;;7.70;99.90;;;;;;5035413;28;20209;-62
2024/03/11 04:28:23;;;;;;;1.53;0.63;;;7.70;99.90;;;;;;5043158;28;20664;-61
2024/03/11 04:30:50;;;;;;;1.90;1.20;;;7.60;99.90;;;;;;5045986;28;20202;-62
2024/03/11 04:33:17;;;;;;;1.63;1.17;;;7.60;99.90;;;;;;5046025;28;20228;-62
2024/03/11 04:35:46;;;;;;;1.87;1.00;;;7.50;99.90;;;;;;5043795;28;20252;-62
2024/03/11 04:38:13;;;;;;;1.97;1.30;;;7.60;99.90;;;;;;5043213;28;20261;-62
2024/03/11 04:40:43;;;;;;;3.90;1.60;;;7.60;99.90;;;;;;5044311;28;20209;-61
2024/03/11 04:43:11;;;;;;;2.23;1.63;;;7.50;99.90;;;;;;5046229;28;20217;-62
2024/03/11 04:45:38;;;;;;;2.83;1.63;;;7.50;99.90;;;;;;5044298;28;20225;-62
2024/03/11 04:48:07;;;;;;;1.73;1.50;;;7.60;99.90;;;;;;5042622;28;20205;-62
2024/03/11 04:50:34;;;;;;;2.00;1.50;;;7.50;99.90;;;;;;5043414;28;20213;-61
2024/03/11 04:53:03;;;;;;;1.83;1.43;;;7.50;99.90;;;;;;5045825;28;20244;-61
2024/03/11 04:55:31;;;;;;;1.90;1.40;;;7.50;99.90;;;;;;5045481;28;20202;-61
2024/03/11 04:57:59;;;;;;;1.50;0.90;;;7.50;99.90;;;;;;5042516;28;20298;-61
2024/03/11 05:00:28;;;;;;;2.83;1.40;;;7.50;99.90;;;;;;5042602;28;20202;-61
2024/03/11 05:02:54;;;;;;;2.10;1.20;;;7.50;99.90;;;;;;5034959;28;20730;-63
2024/03/11 05:05:21;;;;;;;1.20;0.80;;;7.50;99.90;;;;;;5042443;28;20209;-61
2024/03/11 05:07:49;;;;;;;1.07;0.80;;;7.50;99.90;;;;;;5045066;28;20639;-61
2024/03/11 05:10:16;;;;;;;2.43;1.63;;;7.40;99.90;;;;;;5045811;28;20232;-61
2024/03/11 05:12:43;;;;;;;3.13;2.40;;;7.40;99.90;;;;;;5043369;28;20222;-62
2024/03/11 05:15:11;;;;;;;1.23;0.67;;;7.40;99.90;;;;;;5041690;28;20213;-61
2024/03/11 05:17:38;;;;;;;2.30;1.83;;;7.30;99.90;;;;;;5043549;28;20241;-60
2024/03/11 05:20:11;;;;;;;1.10;0.83;;;7.30;99.90;;;;;;5045678;28;20587;-60
2024/03/11 05:22:37;;;;;;;1.53;0.73;;;7.30;99.90;;;;;;5044265;28;20309;-60
2024/03/11 05:25:06;;;;;;;2.20;1.60;;;7.30;99.90;;;;;;5041751;28;20210;-62
2024/03/11 05:27:33;;;;;;;1.00;0.70;;;7.30;99.90;;;;;;5042113;28;20206;-62
2024/03/11 05:30:00;;;;;;;1.90;1.10;;;7.30;99.90;;;;;;5045330;28;20206;-61
2024/03/11 05:32:28;;;;;;;1.43;0.90;;;7.30;99.90;;;;;;5045296;28;20245;-62
2024/03/11 05:34:55;;;;;;;1.43;0.87;;;7.20;99.90;;;;;;5032622;28;20225;-61
2024/03/11 05:37:22;;;;;;;0.83;0.80;;;7.20;99.90;;;;;;5041623;28;20214;-61
2024/03/11 05:39:49;;;;;;;1.27;0.80;;;7.20;99.90;;;;;;5044297;28;20238;-61
2024/03/11 05:42:17;;;;;;;1.80;0.70;;;7.20;99.90;;;;;;5044933;28;20214;-62
2024/03/11 05:44:44;;;;;;;2.63;1.87;;;7.30;99.90;;;;;;5043100;28;20214;-61
2024/03/11 05:47:10;;;;;;;1.10;0.87;;;7.30;99.90;;;;;;5041686;28;20206;-61
2024/03/11 05:49:38;;;;;;;1.30;0.83;;;7.30;99.90;;;;;;5042537;28;20293;-60
2024/03/11 05:52:06;;;;;;;1.00;0.80;;;7.30;99.90;;;;;;5044725;28;20249;-62
2024/03/11 05:54:33;;;;;;;2.40;1.93;;;7.20;99.90;;;;;;5026203;28;20216;-62
2024/03/11 05:57:01;;;;;;;1.97;0.90;;;7.30;99.90;;;;;;5041287;28;20600;-62
2024/03/11 05:59:28;;;;;;;3.80;1.40;;;7.20;99.90;;;;;;5041599;28;20202;-62
2024/03/11 06:01:58;;;;;;;1.30;0.60;;;7.30;99.90;;;;;;5044340;28;20226;-61
2024/03/11 06:04:25;;;;;;;1.27;0.70;;;7.30;99.90;;;;;;5044706;28;20205;-62
2024/03/11 06:06:53;;;;;;;1.07;0.70;;;7.20;99.90;;;;;;5041727;28;20635;-62
2024/03/11 06:09:19;;;;;;;1.87;1.07;;;7.20;99.90;;;;;;5041049;28;20703;-62
2024/03/11 06:11:48;;;;;;;1.13;0.77;;;7.20;99.90;;;;;;5042932;28;20238;-62
2024/03/11 06:14:16;;;;;;;0.93;0.63;;;7.20;99.90;;;;;;5044174;28;20206;-62
2024/03/11 06:16:44;;;;;;;0.60;0.50;;;7.30;99.90;;;;;;5042921;28;20233;-62
2024/03/11 06:19:11;;;;;;;1.80;0.90;;;7.40;99.90;;;;;;5040904;28;20206;-62
2024/03/11 06:21:37;;;;;;;1.97;0.80;;;7.40;99.90;;;;;;5041483;28;20202;-62
2024/03/11 06:24:06;;;;;;;0.63;0.60;;;7.50;99.90;;;;;;5043959;28;20240;-62
2024/03/11 06:26:34;;;;;;;1.63;0.80;;;7.50;99.90;;;;;;5043848;28;20718;-62
2024/03/11 06:29:01;;;;;;;1.20;0.80;;;7.50;99.90;;;;;;5040887;28;20206;-61
2024/03/11 06:31:28;;;;;;;1.80;0.80;;;7.60;99.90;;;;;;5040675;28;20211;-61
2024/03/11 06:33:55;;;;;;;1.50;0.90;;;7.50;99.90;;;;;;5043434;28;20221;-61
2024/03/11 06:36:22;;;;;;;2.10;1.10;;;7.50;99.90;;;;;;5043876;28;20543;-62
2024/03/11 06:38:50;;;;;;;1.47;0.70;;;7.60;99.90;;;;;;5041432;28;20209;-62
2024/03/11 06:41:19;;;;;;;2.20;0.93;;;8.10;99.90;;;;;;5040959;28;20289;-60
2024/03/11 06:43:46;;;;;;;1.33;0.77;;;8.90;99.90;;;;;;5042190;28;20202;-61
2024/03/11 06:46:14;;;;;;;0.60;0.57;;;9.70;99.90;;;;;;5043488;28;20202;-61
2024/03/11 06:48:41;;;;;;;1.60;0.90;;;10.60;99.90;;;;;;5042592;28;20289;-61
2024/03/11 06:51:08;;;;;;;1.60;0.80;;;11.60;99.90;;;;;;5040634;28;20707;-59
2024/03/11 06:53:35;;;;;;;1.30;0.60;;;12.80;99.90;;;;;;5040157;28;20661;-59
2024/03/11 06:56:06;;;;;;;0.87;0.67;;;13.70;99.90;;;;;;5044373;28;20578;-59
2024/03/11 06:58:37;;;;;;;1.27;0.70;;;14.50;99.90;;;;;;5043881;28;20221;-59
2024/03/11 07:01:04;;;;;;;1.70;0.70;;;15.20;99.90;;;;;;5041208;28;20248;-59
2024/03/11 07:03:31;;;;;;;1.88;0.70;;;15.90;99.90;;;;;;5042191;28;20731;-59
2024/03/11 07:05:58;;;;;;;1.15;0.88;;;16.60;99.90;;;;;;5035482;28;20202;-60
2024/03/11 07:08:25;;;;;;;1.25;0.70;;;17.30;99.90;;;;;;5045395;28;20229;-60
2024/03/11 07:10:52;;;;;;;1.00;0.47;;;18.30;99.90;;;;;;5046864;28;20209;-60
2024/03/11 07:13:19;;;;;;;1.48;1.13;;;18.90;99.90;;;;;;5046504;28;20703;-60
2024/03/11 07:15:47;;;;;;;3.00;2.17;;;19.50;99.90;;;;;;5041980;28;20206;-61
2024/03/11 07:18:16;;;;;;;1.08;0.63;;;19.90;99.90;;;;;;5039780;28;20210;-61
2024/03/11 07:20:43;;;;;;;1.90;1.10;;;20.40;99.80;;;;;;5041517;28;20216;-60
2024/03/11 07:23:10;;;;;;;1.60;1.48;;;21.10;98.20;;;;;;5043396;28;20217;-60
2024/03/11 07:25:38;;;;;;;0.95;0.60;;;21.70;97.10;;;;;;5042377;28;20209;-60
2024/03/11 07:28:05;;;;;;;0.45;0.45;;;22.20;95.50;;;;;;5039840;28;20621;-60
2024/03/11 07:30:32;;;;;;;1.08;0.52;;;22.60;93.80;;;;;;5040615;28;20206;-60
2024/03/11 07:33:07;;;;;;;1.08;0.80;;;23.00;92.50;;;;;;5040625;28;20249;-61
2024/03/11 07:35:36;;;;;;;0.80;0.47;;;23.10;91.50;;;;;;5040011;28;20238;-61
2024/03/11 07:38:04;;;;;;;1.00;0.40;;;23.30;90.60;;;;;;5043266;28;20240;-60
2024/03/11 07:40:31;;;;;;;0.85;0.57;;;23.30;89.90;;;;;;5042938;28;20297;-60
2024/03/11 07:42:59;;;;;;;1.33;0.40;;;23.20;88.70;;;;;;5039628;28;20226;-60
2024/03/11 07:45:25;;;;;;;1.52;0.40;;;22.90;88.40;;;;;;5039273;28;20740;-60
2024/03/11 07:47:53;;;;;;;0.70;0.55;;;22.50;89.00;;;;;;5042237;28;20218;-60
2024/03/11 07:50:21;;;;;;;1.38;0.68;;;22.40;89.20;;;;;;5043155;28;20233;-60
2024/03/11 07:52:48;;;;;;;1.05;0.73;;;22.20;89.30;;;;;;5040579;28;20229;-60
2024/03/11 07:55:15;;;;;;;1.60;1.10;;;21.60;89.60;;;;;;5039474;28;20287;-60
2024/03/11 07:57:41;;;;;;;1.85;0.65;;;20.80;90.90;;;;;;5040895;28;20660;-60
2024/03/11 08:00:09;;;;;;;5.63;0.65;;;20.00;91.70;;;;;;5046570;28;20205;-60
2024/03/11 08:02:37;;;;;;;1.50;0.52;;;19.10;92.70;;;;;;5046637;28;20305;-60
2024/03/11 08:05:04;;;;;;;0.63;0.43;;;18.20;93.80;;;;;;5043260;28;20210;-60
2024/03/11 08:07:32;;;;;;;1.73;1.20;;;17.30;94.80;;;;;;5043355;28;20593;-61
2024/03/11 08:10:00;;;;;;;1.40;0.80;;;16.60;96.00;;;;;;5015435;28;20230;-61
2024/03/11 08:12:27;;;;;;;7.97;5.72;;;15.60;97.90;;;;;;5015340;28;20325;-61
2024/03/11 08:14:54;;;;;;;1.98;1.27;;;14.80;99.50;;;;;;5015091;28;20700;-61
2024/03/11 08:17:21;;;;;;;2.95;1.00;;;14.10;99.90;;;;;;5015302;28;20712;-61
2024/03/11 08:19:49;;;;;;;8.55;1.30;;;13.70;99.90;;;;;;5015178;28;20250;-61
2024/03/11 08:22:16;;;;;;;3.30;0.87;;;13.20;99.90;;;;;;5015087;28;20263;-61
2024/03/11 08:24:44;;;;;;;3.67;0.90;;;13.00;99.90;;;;;;5014979;28;20210;-61
2024/03/11 08:27:11;;;;;;;213.60;113.80;;;12.90;99.90;;;;;;5015196;28;20214;-61
2024/03/11 08:29:37;;;;;;;4.43;2.33;;;12.90;99.90;;;;;;5015289;28;20265;-61
2024/03/11 08:32:05;;;;;;;1.10;0.77;;;13.00;99.90;;;;;;5014940;28;20226;-61
2024/03/11 08:34:32;;;;;;;4.60;2.80;;;13.10;99.90;;;;;;5014704;28;20697;-61
2024/03/11 08:36:59;;;;;;;2.43;1.07;;;13.00;99.90;;;;;;5014919;28;20211;-61
2024/03/11 08:39:26;;;;;;;7.40;1.37;;;12.80;99.90;;;;;;5015081;28;20233;-61
2024/03/11 08:41:54;;;;;;;3.03;1.03;;;12.70;99.90;;;;;;5014876;28;20233;-61
2024/03/11 08:44:21;;;;;;;1.47;0.60;;;12.80;99.90;;;;;;5014812;28;20203;-61
2024/03/11 08:46:47;;;;;;;3.53;1.73;;;12.80;99.90;;;;;;5014789;28;20203;-61
2024/03/11 08:49:15;;;;;;;2.70;1.20;;;12.70;99.90;;;;;;5014696;28;20211;-61
2024/03/11 08:51:42;;;;;;;2.20;1.20;;;12.70;99.90;;;;;;5014327;28;20243;-61
2024/03/11 08:54:09;;;;;;;2.07;0.97;;;12.80;99.90;;;;;;5014206;28;20218;-61
2024/03/11 08:56:37;;;;;;;4.43;0.80;;;12.80;99.90;;;;;;5014179;28;20731;-61
2024/03/11 08:59:10;;;;;;;1.70;1.00;;;12.90;99.90;;;;;;5014510;28;20242;-61
2024/03/11 09:01:40;;;;;;;1.53;1.10;;;12.80;99.90;;;;;;5014345;28;20767;-61
2024/03/11 09:04:10;;;;;;;1.87;0.67;;;12.90;99.90;;;;;;5014282;28;20203;-61
2024/03/11 09:06:38;;;;;;;1.90;0.90;;;13.00;99.90;;;;;;5014536;28;20233;-61
2024/03/11 09:09:06;;;;;;;0.40;0.40;;;13.10;99.90;;;;;;5014268;28;20245;-61
2024/03/11 09:11:32;;;;;;;0.90;0.57;;;13.20;99.90;;;;;;5014329;28;20210;-61
2024/03/11 09:13:59;;;;;;;2.00;0.60;;;13.30;99.90;;;;;;5013974;28;20223;-61
2024/03/11 09:16:28;;;;;;;2.83;0.80;;;13.20;99.90;;;;;;5014260;28;20207;-61
2024/03/11 09:18:54;;;;;;;1.43;0.50;;;13.20;99.90;;;;;;5014355;28;20249;-61
2024/03/11 09:21:21;;;;;;;0.40;0.40;;;13.20;99.90;;;;;;5014144;28;20261;-61
2024/03/11 09:23:48;;;;;;;0.70;0.60;;;13.30;99.90;;;;;;5014034;28;20238;-61
2024/03/11 09:26:17;;;;;;;1.40;0.63;;;13.50;99.90;;;;;;5013919;28;20217;-61
2024/03/11 09:28:46;;;;;;;2.77;0.70;;;13.60;99.90;;;;;;5013850;28;20218;-61
2024/03/11 09:31:13;;;;;;;1.13;0.80;;;13.70;99.90;;;;;;5014061;28;20217;-61
2024/03/11 09:33:41;;;;;;;0.77;0.67;;;13.80;99.90;;;;;;5013408;28;20653;-61
2024/03/11 09:36:08;;;;;;;1.00;0.70;;;13.80;99.90;;;;;;5013733;28;20269;-61
2024/03/11 09:38:35;;;;;;;0.83;0.73;;;13.80;99.90;;;;;;5013897;28;20355;-63
2024/03/11 09:41:14;;;;;;;2.27;0.40;;;13.70;99.90;;;;;;5013918;28;20285;-62
2024/03/11 09:43:48;;;;;;;1.57;0.50;;;13.80;99.90;;;;;;5013374;28;20223;-62
2024/03/11 09:46:20;;;;;;;4.90;0.70;;;13.90;99.90;;;;;;5013730;28;20195;-61
2024/03/11 09:48:50;;;;;;;1.90;0.90;;;14.00;99.90;;;;;;5013847;28;20238;-61
2024/03/11 09:51:21;;;;;;;0.40;0.33;;;14.20;99.90;;;;;;5013663;28;20783;-59
2024/03/11 09:53:52;;;;;;;1.57;0.50;;;14.30;99.90;;;;;;5061920;22;20239;-61
2024/03/11 09:56:20;;;;;;;0.90;0.60;;;14.30;99.90;;;;;;5041294;28;20626;-61
2024/03/11 09:58:55;;;;;;;1.70;0.80;;;14.40;99.90;;;;;;5042678;28;20207;-59
2024/03/11 10:01:24;;;;;;;1.67;1.30;;;14.50;99.90;;;;;;5044944;28;20258;-60
2024/03/11 10:03:52;;;;;;;0.70;0.60;;;14.60;99.90;;;;;;5034331;28;20268;-60
2024/03/11 10:06:19;;;;;;;9.70;7.97;;;14.60;99.90;;;;;;5032836;28;20234;-58
2024/03/11 10:08:49;;;;;;;3.00;1.20;;;14.50;99.90;;;;;;5032670;28;20251;-60
2024/03/11 10:11:20;;;;;;;3.93;1.20;;;14.60;99.90;;;;;;5032701;28;20241;-58
2024/03/11 10:13:47;;;;;;;1.33;1.00;;;14.70;99.90;;;;;;5032353;28;20234;-61
2024/03/11 10:16:16;;;;;;;2.63;0.60;;;14.70;99.90;;;;;;5032761;28;20578;-64
2024/03/11 10:19:00;;;;;;;1.93;0.70;;;14.70;99.90;;;;;;5032310;28;20713;-57
2024/03/11 10:21:28;;;;;;;1.70;0.60;;;14.80;99.90;;;;;;5032094;28;20592;-58
2024/03/11 10:23:59;;;;;;;2.00;0.60;;;14.80;99.90;;;;;;5032977;28;20317;-59
2024/03/11 10:26:30;;;;;;;1.67;0.70;;;14.90;99.90;;;;;;5025583;28;20210;-61
2024/03/11 10:28:57;;;;;;;0.50;0.50;;;15.00;99.90;;;;;;5032442;28;20238;-63
2024/03/11 10:31:27;;;;;;;0.95;0.55;;;15.00;99.90;;;;;;5031914;28;20202;-62
2024/03/11 10:34:09;;;;;;;2.70;1.37;;;15.20;99.90;;;;;;5031710;28;20229;-64
2024/03/11 10:36:37;;;;;;;2.47;1.47;;;15.20;99.90;;;;;;5032282;28;20683;-60
2024/03/11 10:39:17;;;;;;;1.03;0.60;;;15.50;99.90;;;;;;5024525;28;20210;-60
2024/03/11 10:41:44;;;;;;;1.57;0.77;;;15.80;99.90;;;;;;5031921;28;20236;-60
2024/03/11 10:44:16;;;;;;;0.85;0.50;;;16.00;99.90;;;;;;5031259;28;20202;-60
2024/03/11 10:46:42;;;;;;;1.08;0.50;;;16.40;99.90;;;;;;5031608;28;20296;-61
2024/03/11 10:49:13;;;;;;;0.73;0.50;;;16.80;99.90;;;;;;5031835;28;20559;-61
2024/03/11 10:51:45;;;;;;;2.00;0.70;;;17.30;99.60;;;;;;5031990;28;20323;-59
2024/03/11 10:54:20;;;;;;;0.30;0.30;;;17.60;98.80;;;;;;5031774;28;20217;-54
2024/03/11 10:56:52;;;;;;;1.17;0.47;;;17.80;97.50;;;;;;5031685;28;20214;-55
2024/03/11 10:59:21;;;;;;;1.05;0.35;;;18.10;97.20;;;;;;5032289;28;20214;-55
2024/03/11 11:01:56;;;;;;;2.90;0.60;;;18.30;96.80;;;;;;5032101;28;20289;-54
2024/03/11 11:04:28;;;;;;;0.60;0.32;;;18.60;96.30;;;;;;5031991;28;20282;-54
2024/03/11 11:06:58;;;;;;;0.65;0.43;;;18.90;95.70;;;;;;5032177;28;20198;-54
2024/03/11 11:09:27;;;;;;;3.35;0.80;;;19.10;94.70;;;;;;5031656;28;20289;-54
2024/03/11 11:11:54;;;;;;;2.03;0.65;;;19.00;94.90;;;;;;5032223;28;20212;-54
2024/03/11 11:14:24;;;;;;;3.42;0.52;;;18.80;95.00;;;;;;5031658;28;20596;-55
2024/03/11 11:16:52;;;;;;;5.40;3.60;;;18.80;94.60;;;;;;5031812;28;20210;-56
2024/03/11 11:19:22;;;;;;;25.25;21.15;;;18.80;95.40;;;;;;5031682;28;20206;-54
2024/03/11 11:21:51;;;;;;;1.27;0.70;;;18.80;94.50;;;;;;5031682;28;20678;-54
2024/03/11 11:24:29;;;;;;;0.50;0.45;;;18.80;93.00;;;;;;5032128;28;20230;-54
2024/03/11 11:26:59;;;;;;;1.00;0.38;;;18.80;93.40;;;;;;5032096;28;20217;-54
2024/03/11 11:29:27;;;;;;;1.15;0.80;;;18.80;93.40;;;;;;5031889;28;20206;-55
2024/03/11 11:32:01;;;;;;;1.42;0.40;;;19.00;92.80;;;;;;5031639;28;20230;-56
2024/03/11 11:34:50;;;;;;;0.90;0.65;;;19.10;92.30;;;;;;5035488;28;20316;-54
2024/03/11 11:37:39;;;;;;;0.63;0.45;;;19.40;92.10;;;;;;5035879;28;20591;-54
2024/03/11 11:40:31;;;;;;;1.90;0.55;;;19.70;92.30;;;;;;5036102;28;20213;-55
2024/03/11 11:42:59;;;;;;;0.50;0.50;;;20.00;91.40;;;;;;5035629;28;20230;-55
2024/03/11 11:45:54;;;;;;;1.95;0.50;;;20.20;90.00;;;;;;5036429;28;20293;-55
2024/03/11 11:48:25;;;;;;;0.82;0.40;;;20.60;90.20;;;;;;5035494;28;20682;-54
2024/03/11 11:50:57;;;;;;;1.50;0.70;;;20.90;87.40;;;;;;5035515;28;20679;-55
2024/03/11 11:53:32;;;;;;;2.67;0.63;;;21.20;86.10;;;;;;5035055;28;20240;-55
2024/03/11 11:56:00;;;;;;;3.30;0.40;;;21.30;83.80;;;;;;5035487;28;20224;-55
2024/03/11 11:58:27;;;;;;;1.15;0.60;;;21.20;82.10;;;;;;5035484;28;20630;-55
2024/03/11 12:01:01;;;;;;;2.28;0.50;;;21.20;81.80;;;;;;5035522;28;20296;-55
2024/03/11 12:03:31;;;;;;;1.00;0.75;;;21.10;80.10;;;;;;5034895;28;20226;-55
2024/03/11 12:08:53;;;;;;;1.67;0.60;;;21.20;83.20;;;;;;5032216;28;20198;-55
2024/03/11 12:11:20;;;;;;;0.38;0.30;;;21.20;80.30;;;;;;5035245;28;20264;-55
2024/03/11 12:13:48;;;;;;;0.32;0.30;;;21.10;80.90;;;;;;5034842;28;20233;-55
2024/03/11 12:16:23;;;;;;;1.88;0.60;;;21.00;81.90;;;;;;5035052;28;20233;-54
2024/03/11 12:19:00;;;;;;;2.25;0.77;;;21.00;89.00;;;;;;5035351;28;20547;-53
2024/03/11 12:21:28;;;;;;;0.45;0.40;;;20.70;93.10;;;;;;5035206;28;20259;-53
2024/03/11 12:23:57;;;;;;;1.83;0.60;;;20.20;94.00;;;;;;5034519;28;20222;-54
2024/03/11 12:26:26;;;;;;;1.00;0.50;;;19.40;95.50;;;;;;5034766;28;20217;-53
2024/03/11 12:29:04;;;;;;;1.45;0.60;;;19.20;93.90;;;;;;5035386;28;20272;-54
2024/03/11 12:31:32;;;;;;;1.05;0.50;;;18.90;95.10;;;;;;5035181;28;20210;-55
2024/03/11 12:34:01;;;;;;;2.63;0.65;;;18.40;94.50;;;;;;5034758;28;20692;-55
2024/03/11 12:36:29;;;;;;;2.03;0.63;;;18.30;95.10;;;;;;5035523;28;20233;-55
2024/03/11 12:38:58;;;;;;;4.68;0.70;;;18.50;94.80;;;;;;5034882;28;20202;-54
2024/03/11 12:41:38;;;;;;;1.25;0.55;;;18.30;94.20;;;;;;5035416;28;20202;-56
2024/03/11 12:44:16;;;;;;;0.82;0.50;;;17.90;94.40;;;;;;5034065;28;20226;-55
2024/03/11 12:46:44;;;;;;;1.52;0.60;;;17.60;95.40;;;;;;5034998;28;20202;-54
2024/03/11 12:49:12;;;;;;;2.22;0.50;;;17.50;95.30;;;;;;5035028;28;20293;-54
2024/03/11 12:51:40;;;;;;;1.35;0.60;;;17.40;96.30;;;;;;5034948;28;20230;-55
2024/03/11 12:54:18;;;;;;;0.40;0.40;;;17.10;96.70;;;;;;5034517;28;20296;-54
2024/03/11 12:56:47;;;;;;;0.60;0.35;;;17.00;96.70;;;;;;5034740;28;20214;-54
2024/03/11 12:59:14;;;;;;;0.55;0.50;;;16.80;94.90;;;;;;5034290;28;20668;-54